Time;durP1;ratioP1;P1;durP2;ratioP2;P2;SDS_P1;SDS_P2;PMS_P1;PMS_P2;Temp;Humidity;BMP_temperature;BMP_pressure;BME280_temperature;BME280_humidity;BME280_pressure;Samples;Min_cycle;Max_cycle;Signal;HPM_P1;HPM_P2
2023/09/28 00:02:50;;;;;;;5.13;3.40;;;20.10;72.90;;;;;;5052521;28;20202;-69
2023/09/28 00:05:16;;;;;;;3.57;2.93;;;20.00;73.30;;;;;;5051505;28;20209;-68
2023/09/28 00:07:44;;;;;;;4.13;3.13;;;20.00;73.30;;;;;;5051857;28;20673;-69
2023/09/28 00:10:13;;;;;;;4.33;3.43;;;19.90;73.20;;;;;;5052321;28;20228;-69
2023/09/28 00:12:41;;;;;;;5.10;3.23;;;19.90;73.50;;;;;;5052348;28;20292;-69
2023/09/28 00:15:09;;;;;;;4.10;3.53;;;19.90;73.70;;;;;;5052350;28;20284;-69
2023/09/28 00:17:38;;;;;;;6.20;3.40;;;19.90;73.80;;;;;;5051579;28;20325;-69
2023/09/28 00:20:09;;;;;;;4.57;3.50;;;19.90;73.90;;;;;;5052073;28;20222;-69
2023/09/28 00:22:36;;;;;;;3.27;2.97;;;19.80;74.30;;;;;;5052228;28;20247;-69
2023/09/28 00:25:10;;;;;;;3.97;3.40;;;19.80;74.40;;;;;;5051910;28;20293;-69
2023/09/28 00:27:39;;;;;;;3.83;3.23;;;19.80;74.30;;;;;;5050731;28;20309;-69
2023/09/28 00:30:09;;;;;;;3.23;2.90;;;19.90;74.60;;;;;;5051547;28;20222;-69
2023/09/28 00:32:36;;;;;;;3.77;3.47;;;19.90;74.40;;;;;;5052094;28;20292;-69
2023/09/28 00:35:04;;;;;;;4.57;3.40;;;19.90;74.20;;;;;;5051520;28;20232;-69
2023/09/28 00:37:30;;;;;;;4.80;3.00;;;19.90;74.20;;;;;;5051780;28;20285;-69
2023/09/28 00:39:56;;;;;;;3.73;3.40;;;19.90;74.10;;;;;;5051633;28;20193;-69
2023/09/28 00:42:24;;;;;;;4.23;3.43;;;19.90;74.30;;;;;;5051075;28;20194;-70
2023/09/28 00:44:51;;;;;;;3.87;3.40;;;19.90;74.40;;;;;;5051212;28;20206;-69
2023/09/28 00:47:18;;;;;;;4.73;3.40;;;19.90;74.60;;;;;;5050929;28;20243;-69
2023/09/28 00:49:45;;;;;;;3.70;3.33;;;19.80;74.40;;;;;;5050973;28;20807;-68
2023/09/28 00:52:16;;;;;;;5.97;3.57;;;19.90;74.40;;;;;;5051693;28;20722;-69
2023/09/28 00:54:43;;;;;;;5.37;3.47;;;19.90;74.60;;;;;;5051661;28;20206;-69
2023/09/28 00:57:10;;;;;;;3.90;3.43;;;19.90;74.60;;;;;;5050428;28;20206;-69
2023/09/28 00:59:36;;;;;;;4.33;3.50;;;19.90;74.60;;;;;;5051660;28;20217;-69
2023/09/28 01:02:05;;;;;;;4.63;3.50;;;19.80;74.50;;;;;;5051297;28;20644;-69
2023/09/28 01:04:31;;;;;;;6.47;3.63;;;19.80;74.60;;;;;;5050930;28;20747;-69
2023/09/28 01:06:58;;;;;;;3.47;3.17;;;19.80;74.60;;;;;;5051184;28;20198;-69
2023/09/28 01:09:24;;;;;;;3.90;3.50;;;19.80;74.70;;;;;;5050762;28;20587;-69
2023/09/28 01:11:52;;;;;;;3.47;3.00;;;19.80;74.60;;;;;;5051002;28;20717;-69
2023/09/28 01:14:19;;;;;;;3.63;3.27;;;19.80;74.50;;;;;;5051249;28;20206;-69
2023/09/28 01:16:46;;;;;;;5.13;3.53;;;19.80;74.40;;;;;;5051034;28;20227;-69
2023/09/28 01:19:13;;;;;;;4.10;3.27;;;19.80;74.70;;;;;;5049599;28;20206;-69
2023/09/28 01:21:40;;;;;;;4.07;3.13;;;19.70;75.00;;;;;;5051200;28;20256;-69
2023/09/28 01:24:07;;;;;;;3.33;3.00;;;19.70;75.10;;;;;;5051261;28;20234;-68
2023/09/28 01:26:34;;;;;;;3.93;3.40;;;19.70;75.10;;;;;;5051227;28;20273;-68
2023/09/28 01:29:00;;;;;;;5.00;3.30;;;19.70;75.30;;;;;;5044899;28;20304;-68
2023/09/28 01:31:28;;;;;;;3.43;3.00;;;19.70;75.40;;;;;;5051010;28;20237;-69
2023/09/28 01:33:54;;;;;;;3.33;3.03;;;19.70;75.30;;;;;;5051150;28;20193;-68
2023/09/28 01:36:21;;;;;;;3.73;3.27;;;19.80;75.30;;;;;;5051453;28;20690;-68
2023/09/28 01:38:52;;;;;;;3.50;3.20;;;19.80;75.30;;;;;;5049544;28;20220;-68
2023/09/28 01:41:20;;;;;;;3.60;3.30;;;19.80;75.50;;;;;;5033479;28;20213;-68
2023/09/28 01:43:46;;;;;;;3.57;3.27;;;19.80;75.40;;;;;;5049900;28;20309;-68
2023/09/28 01:46:13;;;;;;;3.27;2.97;;;19.80;75.20;;;;;;5051019;28;20693;-68
2023/09/28 01:48:39;;;;;;;3.47;3.17;;;19.80;75.10;;;;;;5050492;28;20229;-68
2023/09/28 01:51:06;;;;;;;6.37;3.73;;;19.80;75.10;;;;;;5050704;28;20728;-68
2023/09/28 01:53:32;;;;;;;3.90;3.43;;;19.80;75.10;;;;;;5050117;28;20218;-68
2023/09/28 01:56:02;;;;;;;4.60;3.60;;;19.70;75.00;;;;;;5050495;28;20198;-68
2023/09/28 01:58:29;;;;;;;3.93;3.20;;;19.70;75.00;;;;;;5046529;28;20236;-67
2023/09/28 02:00:56;;;;;;;5.03;3.40;;;19.70;75.10;;;;;;5050641;28;20237;-68
2023/09/28 02:03:22;;;;;;;4.10;3.10;;;19.70;75.10;;;;;;5050290;28;20721;-69
2023/09/28 02:05:49;;;;;;;3.90;3.40;;;19.60;75.10;;;;;;5050411;28;20297;-68
2023/09/28 02:08:15;;;;;;;3.50;3.20;;;19.60;75.30;;;;;;5050078;28;20285;-68
2023/09/28 02:10:42;;;;;;;3.30;2.93;;;19.60;75.20;;;;;;5049914;28;20222;-68
2023/09/28 02:13:09;;;;;;;3.27;2.97;;;19.50;75.40;;;;;;5050559;28;20204;-69
2023/09/28 02:15:37;;;;;;;4.57;3.20;;;19.50;75.70;;;;;;5050660;28;20197;-69
2023/09/28 02:18:04;;;;;;;3.73;3.20;;;19.50;76.10;;;;;;5050389;28;20210;-68
2023/09/28 02:20:31;;;;;;;3.67;3.37;;;19.50;76.20;;;;;;5050386;28;20253;-69
2023/09/28 02:22:57;;;;;;;6.27;3.30;;;19.50;76.10;;;;;;5049151;28;20289;-69
2023/09/28 02:25:26;;;;;;;3.40;3.10;;;19.50;76.30;;;;;;5042829;28;20217;-69
2023/09/28 02:27:53;;;;;;;4.03;2.97;;;19.50;76.30;;;;;;5030379;28;20260;-69
2023/09/28 02:30:22;;;;;;;3.30;3.00;;;19.50;76.30;;;;;;5044639;28;20873;-69
2023/09/28 02:32:51;;;;;;;4.67;3.30;;;19.50;76.30;;;;;;5050471;28;20542;-69
2023/09/28 02:35:18;;;;;;;4.17;3.27;;;19.50;76.40;;;;;;5050546;28;20210;-69
2023/09/28 02:37:48;;;;;;;4.57;3.73;;;19.50;76.40;;;;;;5049930;28;20226;-69
2023/09/28 02:40:14;;;;;;;3.90;3.33;;;19.50;76.60;;;;;;5050352;28;20565;-68
2023/09/28 02:42:42;;;;;;;3.63;3.20;;;19.50;76.90;;;;;;5050273;28;20216;-69
2023/09/28 02:45:11;;;;;;;3.93;3.53;;;19.50;77.00;;;;;;5050263;28;20233;-68
2023/09/28 02:47:39;;;;;;;5.63;3.60;;;19.40;77.00;;;;;;5050170;28;20288;-69
2023/09/28 02:50:09;;;;;;;7.77;3.77;;;19.50;77.20;;;;;;5050537;28;20328;-69
2023/09/28 02:52:37;;;;;;;3.80;3.10;;;19.50;77.20;;;;;;5053512;28;20222;-69
2023/09/28 02:55:06;;;;;;;3.20;3.00;;;19.50;77.20;;;;;;5052788;28;20209;-69
2023/09/28 02:57:33;;;;;;;4.80;3.37;;;19.60;77.10;;;;;;5053899;28;20873;-69
2023/09/28 02:59:59;;;;;;;4.70;3.60;;;19.60;77.00;;;;;;5052511;28;20703;-68
2023/09/28 03:02:26;;;;;;;4.20;3.50;;;19.60;77.20;;;;;;5051462;28;20680;-68
2023/09/28 03:04:52;;;;;;;5.77;3.50;;;19.60;77.20;;;;;;5053634;28;20660;-68
2023/09/28 03:07:20;;;;;;;4.57;3.73;;;19.60;77.20;;;;;;5053507;28;20316;-68
2023/09/28 03:09:46;;;;;;;5.37;3.70;;;19.60;77.20;;;;;;5053030;28;20244;-69
2023/09/28 03:12:14;;;;;;;3.57;3.23;;;19.60;77.20;;;;;;5053547;28;20201;-68
2023/09/28 03:14:39;;;;;;;3.67;3.37;;;19.60;77.50;;;;;;5053564;28;20226;-68
2023/09/28 03:17:07;;;;;;;4.10;3.40;;;19.60;77.30;;;;;;5053529;28;20877;-69
2023/09/28 03:19:34;;;;;;;3.97;3.57;;;19.60;77.40;;;;;;5053518;28;20210;-68
2023/09/28 03:22:01;;;;;;;4.20;3.43;;;19.60;77.10;;;;;;5052569;28;20225;-68
2023/09/28 03:24:28;;;;;;;4.83;3.50;;;19.50;77.10;;;;;;5052503;28;20670;-68
2023/09/28 03:26:55;;;;;;;5.37;3.50;;;19.50;77.30;;;;;;5052796;28;20210;-69
2023/09/28 03:29:21;;;;;;;3.90;3.50;;;19.50;77.40;;;;;;5044091;28;20236;-68
2023/09/28 03:31:47;;;;;;;4.43;3.50;;;19.50;77.40;;;;;;5040667;28;20624;-68
2023/09/28 03:34:14;;;;;;;4.40;3.40;;;19.50;77.40;;;;;;5053426;28;20210;-68
2023/09/28 03:36:41;;;;;;;3.50;3.20;;;19.50;77.50;;;;;;5053233;28;20221;-68
2023/09/28 03:39:08;;;;;;;3.53;3.23;;;19.50;77.40;;;;;;5052717;28;20232;-69
2023/09/28 03:41:37;;;;;;;3.60;3.30;;;19.50;77.40;;;;;;5053148;28;20202;-69
2023/09/28 03:44:04;;;;;;;4.67;3.70;;;19.40;77.70;;;;;;5052922;28;20257;-69
2023/09/28 03:46:31;;;;;;;3.93;3.53;;;19.40;77.70;;;;;;5053125;28;20206;-69
2023/09/28 03:48:58;;;;;;;4.03;3.63;;;19.40;77.80;;;;;;5052703;28;20205;-69
2023/09/28 03:51:25;;;;;;;6.27;3.57;;;19.50;78.20;;;;;;5052612;28;20317;-69
2023/09/28 03:53:52;;;;;;;4.57;3.77;;;19.40;78.30;;;;;;5051254;28;20202;-69
2023/09/28 03:56:19;;;;;;;4.67;3.40;;;19.50;78.40;;;;;;5053065;28;20214;-69
2023/09/28 03:58:47;;;;;;;4.40;4.00;;;19.50;78.30;;;;;;5052545;28;20300;-69
2023/09/28 04:01:14;;;;;;;3.83;3.43;;;19.50;78.50;;;;;;5051885;28;20292;-69
2023/09/28 04:03:41;;;;;;;4.07;3.77;;;19.50;78.40;;;;;;5051991;28;20229;-69
2023/09/28 04:06:09;;;;;;;4.07;3.67;;;19.50;78.40;;;;;;5052468;28;20636;-69
2023/09/28 04:08:36;;;;;;;4.07;3.10;;;19.60;78.20;;;;;;5052218;28;20296;-68
2023/09/28 04:11:03;;;;;;;4.20;3.90;;;19.50;78.00;;;;;;5052490;28;20264;-68
2023/09/28 04:13:30;;;;;;;4.33;3.67;;;19.50;78.00;;;;;;5052113;28;20312;-68
2023/09/28 04:15:58;;;;;;;3.87;3.37;;;19.50;77.90;;;;;;5052669;28;20220;-69
2023/09/28 04:18:25;;;;;;;4.10;3.53;;;19.40;78.10;;;;;;5051822;28;20285;-69
2023/09/28 04:20:52;;;;;;;6.83;3.90;;;19.40;78.20;;;;;;5052109;28;20289;-69
2023/09/28 04:23:19;;;;;;;4.97;3.60;;;19.40;78.20;;;;;;5052236;28;20237;-69
2023/09/28 04:25:46;;;;;;;6.20;3.80;;;19.40;78.50;;;;;;5051306;28;20662;-69
2023/09/28 04:28:13;;;;;;;4.37;3.47;;;19.40;78.50;;;;;;5051716;28;20201;-69
2023/09/28 04:30:40;;;;;;;3.60;3.30;;;19.40;78.50;;;;;;5051984;28;20233;-68
2023/09/28 04:33:08;;;;;;;3.70;3.40;;;19.30;78.50;;;;;;5052005;28;20291;-69
2023/09/28 04:35:35;;;;;;;3.13;2.80;;;19.30;79.50;;;;;;5051561;28;20289;-69
2023/09/28 04:38:03;;;;;;;3.90;3.50;;;19.30;78.70;;;;;;5051550;28;20236;-69
2023/09/28 04:40:31;;;;;;;3.93;3.43;;;19.30;78.60;;;;;;5051373;28;20214;-69
2023/09/28 04:42:58;;;;;;;4.83;3.77;;;19.30;78.90;;;;;;5051124;28;20216;-68
2023/09/28 04:45:25;;;;;;;4.67;3.77;;;19.20;78.70;;;;;;5045187;28;20203;-69
2023/09/28 04:47:52;;;;;;;3.80;3.50;;;19.20;78.80;;;;;;5051540;28;20240;-69
2023/09/28 04:50:20;;;;;;;6.13;3.87;;;19.20;79.60;;;;;;5051390;28;20221;-69
2023/09/28 04:52:47;;;;;;;6.00;3.93;;;19.20;78.90;;;;;;5051295;28;20712;-69
2023/09/28 04:55:14;;;;;;;6.30;4.00;;;19.20;78.90;;;;;;5051355;28;20630;-69
2023/09/28 04:57:41;;;;;;;5.07;3.53;;;19.20;78.90;;;;;;5051165;28;20230;-69
2023/09/28 05:00:13;;;;;;;6.37;3.93;;;19.10;79.00;;;;;;5051160;28;20289;-69
2023/09/28 05:02:41;;;;;;;9.53;5.17;;;19.10;79.30;;;;;;5047356;28;20222;-69
2023/09/28 05:05:08;;;;;;;7.27;4.10;;;19.10;79.70;;;;;;5051762;28;20212;-68
2023/09/28 05:07:37;;;;;;;3.70;3.13;;;19.10;79.80;;;;;;5051552;28;20717;-68
2023/09/28 05:10:05;;;;;;;4.10;3.50;;;19.00;79.70;;;;;;5036311;28;20218;-69
2023/09/28 05:12:33;;;;;;;3.87;3.47;;;19.10;79.60;;;;;;5050880;28;20222;-69
2023/09/28 05:15:01;;;;;;;3.80;3.50;;;19.10;79.40;;;;;;5051345;28;20205;-68
2023/09/28 05:17:28;;;;;;;6.00;3.27;;;19.10;80.00;;;;;;5050830;28;20288;-69
2023/09/28 05:19:55;;;;;;;3.90;3.33;;;19.10;79.10;;;;;;5049977;28;20300;-70
2023/09/28 05:22:22;;;;;;;4.90;3.53;;;19.00;78.70;;;;;;5051493;28;20213;-70
2023/09/28 05:24:51;;;;;;;4.47;3.10;;;19.00;78.60;;;;;;5051027;28;20194;-70
2023/09/28 05:27:18;;;;;;;3.33;3.03;;;19.00;78.60;;;;;;5049037;28;20236;-70
2023/09/28 05:29:45;;;;;;;3.90;3.37;;;19.00;78.50;;;;;;5045169;28;20236;-69
2023/09/28 05:32:12;;;;;;;3.90;3.33;;;19.00;79.00;;;;;;5050143;28;20206;-69
2023/09/28 05:34:39;;;;;;;4.23;3.77;;;18.90;78.30;;;;;;5051440;28;20204;-77
2023/09/28 05:37:07;;;;;;;4.07;3.53;;;18.90;78.20;;;;;;5052685;28;20234;-77
2023/09/28 05:39:34;;;;;;;3.63;3.30;;;18.80;78.30;;;;;;5052120;28;20559;-76
2023/09/28 05:42:03;;;;;;;4.50;3.50;;;18.80;78.40;;;;;;5052678;28;20213;-77
2023/09/28 05:44:31;;;;;;;3.83;3.40;;;18.80;78.40;;;;;;5050771;28;20210;-77
2023/09/28 05:46:59;;;;;;;4.33;3.23;;;18.80;78.60;;;;;;5047921;28;20217;-77
2023/09/28 05:49:26;;;;;;;4.10;3.70;;;18.90;78.50;;;;;;5051971;28;20201;-76
2023/09/28 05:51:53;;;;;;;4.97;3.70;;;18.80;78.20;;;;;;5052136;28;20212;-77
2023/09/28 05:54:20;;;;;;;3.90;3.60;;;18.80;77.80;;;;;;5051907;28;20268;-77
2023/09/28 05:56:47;;;;;;;3.90;3.50;;;18.80;78.20;;;;;;5051845;28;20260;-76
2023/09/28 05:59:15;;;;;;;4.10;3.63;;;18.80;78.50;;;;;;5051904;28;20484;-77
2023/09/28 06:01:42;;;;;;;4.43;3.23;;;18.80;78.50;;;;;;5051780;28;20248;-77
2023/09/28 06:04:11;;;;;;;4.57;3.80;;;18.70;79.50;;;;;;5052304;28;20624;-77
2023/09/28 06:06:38;;;;;;;3.80;3.40;;;18.80;78.80;;;;;;5052055;28;20985;-77
2023/09/28 06:09:05;;;;;;;4.17;3.10;;;18.80;78.80;;;;;;5051874;28;20328;-77
2023/09/28 06:11:32;;;;;;;4.57;3.40;;;18.80;78.90;;;;;;5052132;28;20221;-77
2023/09/28 06:13:59;;;;;;;4.73;3.20;;;18.80;78.80;;;;;;5050536;28;20208;-77
2023/09/28 06:16:28;;;;;;;3.63;3.33;;;18.90;78.80;;;;;;5032025;28;20242;-77
2023/09/28 06:18:54;;;;;;;4.03;3.63;;;18.90;78.80;;;;;;5032429;28;20213;-77
2023/09/28 06:21:22;;;;;;;4.10;3.80;;;18.80;78.80;;;;;;5045250;28;20202;-77
2023/09/28 06:23:49;;;;;;;4.87;3.87;;;18.80;78.80;;;;;;5051674;28;20283;-77
2023/09/28 06:26:16;;;;;;;4.17;3.77;;;18.80;78.80;;;;;;5054836;28;20259;-77
2023/09/28 06:28:43;;;;;;;4.10;3.70;;;18.90;78.80;;;;;;5050866;28;20713;-78
2023/09/28 06:31:10;;;;;;;3.80;3.50;;;18.90;78.90;;;;;;5045916;28;20255;-78
2023/09/28 06:33:38;;;;;;;5.67;3.90;;;19.00;79.60;;;;;;5043599;28;20368;-78
2023/09/28 06:36:05;;;;;;;4.33;3.50;;;19.00;78.90;;;;;;5055756;28;20209;-77
2023/09/28 06:38:33;;;;;;;4.70;3.70;;;19.00;79.00;;;;;;5055803;28;20194;-78
2023/09/28 06:41:01;;;;;;;4.03;3.23;;;19.10;79.20;;;;;;5055214;28;20558;-76
2023/09/28 06:43:27;;;;;;;4.30;3.87;;;19.10;79.20;;;;;;5017574;28;20238;-76
2023/09/28 06:45:56;;;;;;;3.63;3.30;;;19.10;79.20;;;;;;5052333;28;20297;-76
2023/09/28 06:48:23;;;;;;;3.70;3.40;;;19.20;79.00;;;;;;5048166;28;20201;-76
2023/09/28 06:50:53;;;;;;;4.03;3.63;;;19.30;79.30;;;;;;5054118;28;20605;-76
2023/09/28 06:53:20;;;;;;;3.50;3.20;;;19.30;80.10;;;;;;5036979;28;20207;-76
2023/09/28 06:55:47;;;;;;;3.97;3.37;;;19.40;79.40;;;;;;5054425;28;20301;-76
2023/09/28 06:58:14;;;;;;;3.37;3.03;;;19.40;79.00;;;;;;5054524;28;20206;-77
2023/09/28 07:00:41;;;;;;;6.27;3.60;;;19.50;78.70;;;;;;5054282;28;20217;-77
2023/09/28 07:03:09;;;;;;;3.40;3.10;;;19.60;78.60;;;;;;5054273;28;20205;-76
2023/09/28 07:05:36;;;;;;;4.67;3.70;;;19.60;78.40;;;;;;5054412;28;20631;-76
2023/09/28 07:08:05;;;;;;;4.10;3.40;;;19.70;78.20;;;;;;5054065;28;20193;-76
2023/09/28 07:10:33;;;;;;;4.53;3.50;;;19.80;77.80;;;;;;5054181;28;20237;-76
2023/09/28 07:13:02;;;;;;;6.20;3.53;;;19.90;77.70;;;;;;5035708;28;20214;-76
2023/09/28 07:15:29;;;;;;;4.10;3.60;;;20.00;77.30;;;;;;5054173;28;20208;-77
2023/09/28 07:17:57;;;;;;;7.30;3.90;;;20.10;77.20;;;;;;5054035;28;20222;-76
2023/09/28 07:20:26;;;;;;;4.10;3.43;;;20.20;77.10;;;;;;5053280;28;20222;-76
2023/09/28 07:22:53;;;;;;;4.43;3.43;;;20.30;76.60;;;;;;5054027;28;20681;-77
2023/09/28 07:25:21;;;;;;;4.30;3.63;;;20.30;76.10;;;;;;5022741;28;20567;-76
2023/09/28 07:27:50;;;;;;;6.97;3.00;;;20.40;76.10;;;;;;5019890;28;20234;-76
2023/09/28 07:30:19;;;;;;;5.47;3.53;;;20.50;76.10;;;;;;5036636;28;20258;-76
2023/09/28 07:32:47;;;;;;;4.13;3.43;;;20.60;75.90;;;;;;5054597;28;20200;-76
2023/09/28 07:35:14;;;;;;;3.43;2.97;;;20.60;75.60;;;;;;5019226;28;20286;-76
2023/09/28 07:37:42;;;;;;;3.80;3.40;;;20.70;75.50;;;;;;5053383;28;20319;-77
2023/09/28 07:40:12;;;;;;;4.13;3.10;;;20.80;75.80;;;;;;5036988;28;20217;-76
2023/09/28 07:42:40;;;;;;;4.00;3.60;;;20.90;76.00;;;;;;5054393;28;20343;-76
2023/09/28 07:45:08;;;;;;;4.27;3.67;;;21.00;76.00;;;;;;5053944;28;20232;-76
2023/09/28 07:47:35;;;;;;;4.67;3.50;;;21.00;75.60;;;;;;5054476;28;20194;-76
2023/09/28 07:50:03;;;;;;;5.87;3.77;;;21.10;75.00;;;;;;5054179;28;20236;-76
2023/09/28 07:52:30;;;;;;;4.20;3.80;;;21.20;75.00;;;;;;5054363;28;20280;-76
2023/09/28 07:54:57;;;;;;;4.90;4.13;;;21.40;74.70;;;;;;5054397;28;20205;-76
2023/09/28 07:57:24;;;;;;;4.00;3.60;;;21.50;74.40;;;;;;5053693;28;20689;-76
2023/09/28 07:59:54;;;;;;;5.93;4.00;;;21.60;73.60;;;;;;5053762;28;20667;-76
2023/09/28 08:02:20;;;;;;;5.73;3.50;;;21.70;73.20;;;;;;5040768;28;20242;-76
2023/09/28 08:04:48;;;;;;;4.67;3.63;;;21.80;73.10;;;;;;5053323;28;20204;-77
2023/09/28 08:07:15;;;;;;;6.30;3.80;;;21.90;72.70;;;;;;5053271;28;20267;-76
2023/09/28 08:09:43;;;;;;;6.13;4.47;;;22.00;72.60;;;;;;5053209;28;20300;-76
2023/09/28 08:12:10;;;;;;;5.63;4.13;;;22.00;72.20;;;;;;5011074;28;20218;-74
2023/09/28 08:14:37;;;;;;;5.63;3.90;;;22.10;72.30;;;;;;5032608;28;20230;-75
2023/09/28 08:17:05;;;;;;;4.47;3.80;;;22.20;71.60;;;;;;5044484;28;20309;-75
2023/09/28 08:19:32;;;;;;;5.80;4.20;;;22.30;71.40;;;;;;5052761;28;20244;-75
2023/09/28 08:21:59;;;;;;;6.13;4.10;;;22.30;71.50;;;;;;5052562;28;20216;-75
2023/09/28 08:24:25;;;;;;;5.70;4.37;;;22.40;71.10;;;;;;5053018;28;20216;-76
2023/09/28 08:26:52;;;;;;;5.27;4.20;;;22.40;71.40;;;;;;5053024;28;20705;-76
2023/09/28 08:29:19;;;;;;;5.87;3.60;;;22.50;71.60;;;;;;5041664;28;20288;-75
2023/09/28 08:31:46;;;;;;;4.83;3.80;;;22.60;71.60;;;;;;5033554;28;20226;-76
2023/09/28 08:34:14;;;;;;;5.00;4.10;;;22.70;71.80;;;;;;5033821;28;20202;-75
2023/09/28 08:36:41;;;;;;;4.63;3.90;;;22.80;71.10;;;;;;5033582;28;20285;-75
2023/09/28 08:39:10;;;;;;;5.07;3.87;;;22.90;70.50;;;;;;5034234;28;20232;-74
2023/09/28 08:41:44;;;;;;;4.97;4.10;;;22.90;70.20;;;;;;5052767;28;20205;-75
2023/09/28 08:44:13;;;;;;;4.33;3.83;;;23.10;69.40;;;;;;5052026;28;20225;-75
2023/09/28 08:46:40;;;;;;;4.67;4.03;;;23.20;68.20;;;;;;5052926;28;20258;-75
2023/09/28 08:49:10;;;;;;;4.70;3.90;;;23.30;68.50;;;;;;5052413;28;20297;-76
2023/09/28 08:51:39;;;;;;;4.80;3.90;;;23.50;68.50;;;;;;5051269;28;20284;-75
2023/09/28 08:54:07;;;;;;;7.07;3.77;;;23.60;67.50;;;;;;5052914;28;20297;-75
2023/09/28 08:56:36;;;;;;;6.80;3.80;;;23.70;67.60;;;;;;5044880;28;20315;-75
2023/09/28 08:59:03;;;;;;;4.67;3.60;;;23.90;67.00;;;;;;5036009;28;20190;-74
2023/09/28 09:01:32;;;;;;;4.37;3.73;;;24.10;67.20;;;;;;5052052;28;20208;-74
2023/09/28 09:03:59;;;;;;;4.50;3.90;;;24.20;65.90;;;;;;5051888;28;20226;-75
2023/09/28 09:06:29;;;;;;;4.50;3.70;;;24.30;65.80;;;;;;5051864;28;20201;-74
2023/09/28 09:09:01;;;;;;;5.93;3.43;;;24.30;65.80;;;;;;5051906;28;20251;-75
2023/09/28 09:11:30;;;;;;;4.57;3.67;;;24.50;64.90;;;;;;5051320;28;20209;-74
2023/09/28 09:13:57;;;;;;;4.00;3.50;;;24.50;65.80;;;;;;5052162;28;20212;-75
2023/09/28 09:16:24;;;;;;;4.40;3.80;;;24.60;65.00;;;;;;5051956;28;20252;-75
2023/09/28 09:18:52;;;;;;;6.63;3.80;;;24.80;64.40;;;;;;5051653;28;20208;-74
2023/09/28 09:21:19;;;;;;;5.43;4.23;;;24.90;64.40;;;;;;5051262;28;20642;-75
2023/09/28 09:24:03;;;;;;;5.40;3.57;;;25.00;64.10;;;;;;5051363;28;20271;-75
2023/09/28 09:26:38;;;;;;;4.03;3.60;;;25.20;63.50;;;;;;5051706;28;20197;-74
2023/09/28 09:29:07;;;;;;;6.47;3.60;;;25.30;63.60;;;;;;5051705;28;20249;-74
2023/09/28 09:31:34;;;;;;;5.37;3.63;;;25.40;63.40;;;;;;5051396;28;20225;-74
2023/09/28 09:34:05;;;;;;;6.43;3.70;;;25.60;63.40;;;;;;5051352;28;20217;-74
2023/09/28 09:36:32;;;;;;;5.93;3.80;;;25.70;62.00;;;;;;5045572;28;20199;-74
2023/09/28 09:38:59;;;;;;;4.40;3.60;;;25.80;61.90;;;;;;5031548;28;20747;-75
2023/09/28 09:41:29;;;;;;;5.50;3.40;;;25.90;61.30;;;;;;5031246;28;20245;-74
2023/09/28 09:43:58;;;;;;;5.20;3.87;;;26.00;60.60;;;;;;5037738;28;20201;-75
2023/09/28 09:46:26;;;;;;;6.07;3.53;;;26.20;60.20;;;;;;5051535;28;20216;-75
2023/09/28 09:48:54;;;;;;;5.17;4.00;;;26.30;60.70;;;;;;5051173;28;20646;-74
2023/09/28 09:51:21;;;;;;;4.30;3.40;;;26.40;59.20;;;;;;5051234;28;20694;-75
2023/09/28 09:53:48;;;;;;;4.97;3.60;;;26.40;58.80;;;;;;5050881;28;20245;-74
2023/09/28 09:56:16;;;;;;;4.70;3.63;;;26.60;58.80;;;;;;5051248;28;20209;-74
2023/09/28 09:58:48;;;;;;;4.57;3.50;;;26.70;58.00;;;;;;5051362;28;20210;-75
2023/09/28 10:01:16;;;;;;;4.07;3.50;;;26.80;58.20;;;;;;5050364;28;20194;-74
2023/09/28 10:03:46;;;;;;;4.13;3.67;;;26.90;58.00;;;;;;5050905;28;20260;-75
2023/09/28 10:06:15;;;;;;;5.10;3.47;;;27.10;57.50;;;;;;5051183;28;20232;-74
2023/09/28 10:08:43;;;;;;;4.40;3.53;;;27.20;56.00;;;;;;5051247;28;20203;-74
2023/09/28 10:11:12;;;;;;;4.13;3.47;;;27.10;56.10;;;;;;5050935;28;20219;-74
2023/09/28 10:13:39;;;;;;;5.93;3.57;;;27.10;55.50;;;;;;5049304;28;20657;-75
2023/09/28 10:16:11;;;;;;;4.20;3.50;;;27.20;56.10;;;;;;5050363;28;20212;-74
2023/09/28 10:18:40;;;;;;;4.00;3.57;;;27.40;55.70;;;;;;5051469;28;20232;-75
2023/09/28 10:21:08;;;;;;;4.43;3.27;;;27.50;55.60;;;;;;5050730;28;20731;-74
2023/09/28 10:23:35;;;;;;;3.97;3.40;;;27.60;54.70;;;;;;5051926;28;20221;-74
2023/09/28 10:26:07;;;;;;;4.30;3.50;;;27.80;54.80;;;;;;5051723;28;20546;-74
2023/09/28 10:28:34;;;;;;;4.33;3.57;;;27.80;53.50;;;;;;5051597;28;20693;-74
2023/09/28 10:31:10;;;;;;;3.60;3.30;;;27.90;54.30;;;;;;5051022;28;20233;-75
2023/09/28 10:33:57;;;;;;;3.53;3.07;;;28.00;53.90;;;;;;5051293;28;20641;-74
2023/09/28 10:36:26;;;;;;;4.60;3.13;;;28.20;51.80;;;;;;5051325;28;20217;-74
2023/09/28 10:39:08;;;;;;;3.97;3.53;;;28.30;52.30;;;;;;5051726;28;20286;-74
2023/09/28 10:41:37;;;;;;;4.83;3.23;;;28.50;51.40;;;;;;5051279;28;20196;-74
2023/09/28 10:44:12;;;;;;;5.80;3.47;;;28.60;52.30;;;;;;5043541;28;20245;-74
2023/09/28 10:46:40;;;;;;;5.73;3.90;;;28.60;50.10;;;;;;5047649;28;20255;-74
2023/09/28 10:49:07;;;;;;;3.73;3.20;;;28.60;50.80;;;;;;5051806;28;20581;-74
2023/09/28 10:51:34;;;;;;;4.27;3.57;;;28.60;50.10;;;;;;5050440;28;20212;-74
2023/09/28 10:54:04;;;;;;;3.60;2.90;;;28.70;51.00;;;;;;5051424;28;20652;-74
2023/09/28 10:56:31;;;;;;;3.70;3.20;;;28.90;50.40;;;;;;5031181;28;20632;-73
2023/09/28 10:59:00;;;;;;;3.47;3.17;;;29.00;50.60;;;;;;5031339;28;20197;-74
2023/09/28 11:01:27;;;;;;;4.90;3.17;;;29.20;50.20;;;;;;5032478;28;20544;-76
2023/09/28 11:03:56;;;;;;;5.30;3.70;;;29.20;49.60;;;;;;5040100;28;20229;-74
2023/09/28 11:06:24;;;;;;;4.83;3.57;;;29.40;49.80;;;;;;5051307;28;20205;-76
2023/09/28 11:08:50;;;;;;;5.33;3.77;;;29.50;50.10;;;;;;5051001;28;20231;-74
2023/09/28 11:11:21;;;;;;;3.90;3.20;;;29.60;49.00;;;;;;5052451;28;20289;-76
2023/09/28 11:13:48;;;;;;;3.63;3.20;;;29.80;49.70;;;;;;5054996;28;20190;-74
2023/09/28 11:16:17;;;;;;;3.63;3.33;;;30.00;49.30;;;;;;5054828;28;20232;-74
2023/09/28 11:18:44;;;;;;;3.73;3.43;;;30.20;49.20;;;;;;5054896;28;20522;-74
2023/09/28 11:21:12;;;;;;;6.23;3.47;;;30.30;49.20;;;;;;5053926;28;20226;-74
2023/09/28 11:23:40;;;;;;;4.30;3.60;;;30.50;47.40;;;;;;5054591;28;20296;-75
2023/09/28 11:26:09;;;;;;;4.30;3.20;;;30.50;47.90;;;;;;5054774;28;20214;-74
2023/09/28 11:28:36;;;;;;;3.83;3.10;;;30.60;47.90;;;;;;5054382;28;20243;-73
2023/09/28 11:31:09;;;;;;;6.57;3.93;;;30.80;47.30;;;;;;5054110;28;20197;-73
2023/09/28 11:33:36;;;;;;;4.80;3.37;;;30.80;45.90;;;;;;5054445;28;20586;-74
2023/09/28 11:36:04;;;;;;;3.43;3.13;;;30.80;46.10;;;;;;5054631;28;20585;-74
2023/09/28 11:38:32;;;;;;;6.07;3.50;;;30.80;46.00;;;;;;5054111;28;20198;-74
2023/09/28 11:40:59;;;;;;;4.43;3.60;;;30.80;45.80;;;;;;5053918;28;20729;-73
2023/09/28 11:43:26;;;;;;;4.10;3.10;;;31.00;46.00;;;;;;5051827;28;20281;-73
2023/09/28 11:45:53;;;;;;;3.50;3.20;;;31.20;45.70;;;;;;5034534;28;20219;-74
2023/09/28 11:48:21;;;;;;;3.80;3.37;;;31.20;45.40;;;;;;5034520;28;20338;-74
2023/09/28 11:50:50;;;;;;;3.83;3.33;;;31.40;44.60;;;;;;5053135;28;20204;-74
2023/09/28 11:53:17;;;;;;;4.33;3.50;;;31.50;44.90;;;;;;5053678;28;20273;-74
2023/09/28 11:55:47;;;;;;;4.43;3.70;;;31.70;45.00;;;;;;5054447;28;20278;-74
2023/09/28 11:58:20;;;;;;;5.40;3.80;;;32.10;44.40;;;;;;5054036;28;20204;-73
2023/09/28 12:00:47;;;;;;;4.10;3.43;;;32.40;44.20;;;;;;5053384;28;20568;-73
2023/09/28 12:03:14;;;;;;;3.90;3.23;;;32.50;43.30;;;;;;5053701;28;20207;-74
2023/09/28 12:05:41;;;;;;;3.80;3.20;;;32.50;42.70;;;;;;5053944;28;20296;-74
2023/09/28 12:08:08;;;;;;;4.53;3.10;;;32.60;43.50;;;;;;5054071;28;20204;-74
2023/09/28 12:10:37;;;;;;;3.50;3.20;;;32.50;42.20;;;;;;5035302;28;20217;-74
2023/09/28 12:13:05;;;;;;;5.07;3.53;;;32.70;42.70;;;;;;5053489;28;20815;-74
2023/09/28 12:15:32;;;;;;;4.40;3.30;;;32.80;42.50;;;;;;5053369;28;20561;-74
2023/09/28 12:17:59;;;;;;;5.70;3.47;;;32.90;42.00;;;;;;5053226;28;20218;-75
2023/09/28 12:20:26;;;;;;;5.53;3.57;;;33.00;42.20;;;;;;5053229;28;20216;-75
2023/09/28 12:22:53;;;;;;;4.10;3.70;;;33.10;41.40;;;;;;5052996;28;20182;-75
2023/09/28 12:25:21;;;;;;;4.47;3.70;;;33.00;41.40;;;;;;5053343;28;20211;-74
2023/09/28 12:27:48;;;;;;;3.57;3.27;;;32.90;41.40;;;;;;5052697;28;20584;-73
2023/09/28 12:30:21;;;;;;;6.40;3.80;;;32.90;41.40;;;;;;5053260;28;20266;-76
2023/09/28 12:32:50;;;;;;;5.27;3.77;;;33.10;41.80;;;;;;5053091;28;20264;-75
2023/09/28 12:35:18;;;;;;;3.63;3.10;;;33.20;41.60;;;;;;5051838;28;20216;-75
2023/09/28 12:37:45;;;;;;;5.30;3.70;;;33.30;41.10;;;;;;5052730;28;20307;-74
2023/09/28 12:40:13;;;;;;;3.43;3.13;;;33.30;40.70;;;;;;5052866;28;20228;-75
2023/09/28 12:42:40;;;;;;;4.13;3.67;;;33.30;41.00;;;;;;5052867;28;20596;-75
2023/09/28 12:45:08;;;;;;;3.90;3.50;;;33.40;40.60;;;;;;5053036;28;20208;-75
2023/09/28 12:47:36;;;;;;;4.60;3.27;;;33.50;40.50;;;;;;5041631;28;20224;-75
2023/09/28 12:50:03;;;;;;;4.30;3.40;;;33.70;42.00;;;;;;5043308;28;20705;-75
2023/09/28 12:52:31;;;;;;;4.03;3.47;;;33.80;41.50;;;;;;5052542;28;20225;-75